Stolt Shearwater — ZCRD9 — position and weather

sailwx.info

Track history (hours):
 
Tides and Currents Weather Stations Pressure Air Temp Water Temp Dewpoint Dewpoint Depression Visibility Wind Speed Wind Dir Waves Ship Positions

Stolt Shearwater

Last reported at 2015-Mar-05 19:33 UTC. Time now 2015-Mar-06 09:07 UTC.
Position N 49°29' W 003°47'.

Length 96 m; draft 6.6 m.

Type: Ship (hazmat cat B). MMSI: 319402000.

Date/timePositionNaut miles runAvg speedWind from/ knotsBaromVisibWave heightAir tempDewpointWater temp
2015-Mar-05 19:33N 49°29' W 003°47'7811.2
2015-Mar-05 12:33N 48°50' W 005°30'  
2015-Mar-02 08:29N 39°01' W 009°57'9 8.2
2015-Mar-02 07:25N 38°53' W 009°57'7 8.1
2015-Mar-02 06:33N 38°46' W 009°57'8 8.1
2015-Mar-02 05:33N 38°38' W 009°56'8 8.3
2015-Mar-02 04:33N 38°30' W 009°53'9 8.3
2015-Mar-02 03:29N 38°21' W 009°50'11 8.3
2015-Mar-02 02:08N 38°10' W 009°47'5 8.7
2015-Mar-02 01:33N 38°05' W 009°45'9 8.5
2015-Mar-02 00:29N 37°56' W 009°43'8 8.2
2015-Mar-01 23:33N 37°49' W 009°41'8 8.1
2015-Mar-01 22:33N 37°41' W 009°39'9 8.3
2015-Mar-01 21:28N 37°32' W 009°37'18 8.1
2015-Mar-01 19:12N 37°14' W 009°31'8 7.9
2015-Mar-01 18:08N 37°06' W 009°29'5 7.8
2015-Mar-01 17:29N 37°01' W 009°28'36 7.3
2015-Mar-01 12:32N 36°38' W 008°53'37 8.6
2015-Mar-01 08:13N 36°40' W 008°07'  
2015-Feb-25 19:31N 36°36' W 008°19'97 6.9
2015-Feb-25 05:28N 37°56' W 009°29'1010.3
2015-Feb-25 04:32N 38°06' W 009°27'1010.4
2015-Feb-25 03:33N 38°16' W 009°26'1010.0
2015-Feb-25 02:33N 38°26' W 009°23'10 9.6
2015-Feb-25 01:33N 38°35' W 009°22'10 9.8
2015-Feb-25 00:33N 38°41' W 009°12'2 2.0
2015-Feb-24 23:17N 38°42' W 009°09'0 0.0
2015-Feb-24 22:23N 38°42' W 009°09'0 0.0
2015-Feb-24 19:26N 38°42' W 009°09'0 0.0
2015-Feb-24 18:23N 38°42' W 009°09'0 0.0
2015-Feb-24 15:32N 38°42' W 009°09'0 0.0
2015-Feb-24 14:29N 38°42' W 009°09'0 0.0
2015-Feb-24 12:26N 38°42' W 009°09'0 0.0
2015-Feb-24 07:14N 38°42' W 009°09'0 0.0
2015-Feb-24 02:33N 38°42' W 009°09'0 0.4
2015-Feb-24 01:34N 38°42' W 009°09'9 9.1
2015-Feb-24 00:33N 38°39' W 009°20'2 2.1
2015-Feb-23 23:33N 38°40' W 009°22'3 3.2
2015-Feb-23 22:33N 38°39' W 009°26'9 8.5
2015-Feb-23 21:32N 38°35' W 009°36'10 9.6
2015-Feb-23 20:32N 38°34' W 009°48'  
Track history (hours):
 
Tides and Currents Weather Stations Pressure Air Temp Water Temp Dewpoint Dewpoint Depression Visibility Wind Speed Wind Dir Waves Ship Positions

Stolt Shearwater

Last reported at 2015-Mar-05 19:33 UTC. Time now 2015-Mar-06 09:07 UTC.
Position N 49°29' W 003°47'.

Length 96 m; draft 6.6 m.

Type: Ship (hazmat cat B). MMSI: 319402000.

Date/timePositionNaut miles runAvg speedWind from/ knotsBaromVisibWave heightAir tempDewpointWater temp
2015-Mar-05 19:33N 49°29' W 003°47'7811.2
2015-Mar-05 12:33N 48°50' W 005°30'  
2015-Mar-02 08:29N 39°01' W 009°57'9 8.2
2015-Mar-02 07:25N 38°53' W 009°57'7 8.1
2015-Mar-02 06:33N 38°46' W 009°57'8 8.1
2015-Mar-02 05:33N 38°38' W 009°56'8 8.3
2015-Mar-02 04:33N 38°30' W 009°53'9 8.3
2015-Mar-02 03:29N 38°21' W 009°50'11 8.3
2015-Mar-02 02:08N 38°10' W 009°47'5 8.7
2015-Mar-02 01:33N 38°05' W 009°45'9 8.5
2015-Mar-02 00:29N 37°56' W 009°43'8 8.2
2015-Mar-01 23:33N 37°49' W 009°41'8 8.1
2015-Mar-01 22:33N 37°41' W 009°39'9 8.3
2015-Mar-01 21:28N 37°32' W 009°37'18 8.1
2015-Mar-01 19:12N 37°14' W 009°31'8 7.9
2015-Mar-01 18:08N 37°06' W 009°29'5 7.8
2015-Mar-01 17:29N 37°01' W 009°28'36 7.3
2015-Mar-01 12:32N 36°38' W 008°53'37 8.6
2015-Mar-01 08:13N 36°40' W 008°07'  
2015-Feb-25 19:31N 36°36' W 008°19'97 6.9
2015-Feb-25 05:28N 37°56' W 009°29'1010.3
2015-Feb-25 04:32N 38°06' W 009°27'1010.4
2015-Feb-25 03:33N 38°16' W 009°26'1010.0
2015-Feb-25 02:33N 38°26' W 009°23'10 9.6
2015-Feb-25 01:33N 38°35' W 009°22'10 9.8
2015-Feb-25 00:33N 38°41' W 009°12'2 2.0
2015-Feb-24 23:17N 38°42' W 009°09'0 0.0
2015-Feb-24 22:23N 38°42' W 009°09'0 0.0
2015-Feb-24 19:26N 38°42' W 009°09'0 0.0
2015-Feb-24 18:23N 38°42' W 009°09'0 0.0
2015-Feb-24 15:32N 38°42' W 009°09'0 0.0
2015-Feb-24 14:29N 38°42' W 009°09'0 0.0
2015-Feb-24 12:26N 38°42' W 009°09'0 0.0
2015-Feb-24 07:14N 38°42' W 009°09'0 0.0
2015-Feb-24 02:33N 38°42' W 009°09'0 0.4
2015-Feb-24 01:34N 38°42' W 009°09'9 9.1
2015-Feb-24 00:33N 38°39' W 009°20'2 2.1
2015-Feb-23 23:33N 38°40' W 009°22'3 3.2
2015-Feb-23 22:33N 38°39' W 009°26'9 8.5
2015-Feb-23 21:32N 38°35' W 009°36'10 9.6
2015-Feb-23 20:32N 38°34' W 009°48'  

Dump ship's entire track history